createdAt,value
2022-09-14T00:01:26.516Z,79.67
2022-09-14T00:04:00.295Z,79.44
2022-09-14T00:06:27.783Z,79.63
2022-09-14T00:08:55.781Z,79.83
2022-09-14T00:11:25.051Z,79.80
2022-09-14T00:13:52.930Z,79.97
2022-09-14T00:16:42.448Z,79.76
2022-09-14T00:19:20.818Z,79.83
2022-09-14T00:21:51.455Z,79.60
2022-09-14T00:24:19.620Z,79.72
2022-09-14T00:26:46.600Z,79.70
2022-09-14T00:29:13.601Z,79.73
2022-09-14T00:31:41.065Z,79.67
2022-09-14T00:34:09.629Z,79.79
2022-09-14T00:36:46.357Z,79.64
2022-09-14T00:39:14.803Z,79.63
2022-09-14T00:41:43.521Z,79.72
2022-09-14T00:44:10.461Z,79.63
2022-09-14T00:46:45.171Z,79.61
2022-09-14T00:49:32.595Z,79.71
2022-09-14T00:52:20.530Z,79.64
2022-09-14T00:54:51.789Z,79.48
2022-09-14T00:57:19.336Z,79.57
2022-09-14T00:59:48.373Z,79.43
2022-09-14T01:02:16.059Z,79.53
2022-09-14T01:04:43.871Z,79.51
2022-09-14T01:07:29.071Z,79.57
2022-09-14T01:10:28.749Z,79.42
2022-09-14T01:13:18.700Z,79.36
2022-09-14T01:15:52.174Z,79.31
2022-09-14T01:18:28.812Z,79.11
2022-09-14T01:21:05.181Z,79.10
2022-09-14T01:23:42.208Z,79.17
2022-09-14T01:26:46.850Z,79.01
2022-09-14T01:29:22.903Z,79.01
2022-09-14T01:32:02.933Z,78.92
2022-09-14T01:34:38.849Z,79.00
2022-09-14T01:37:13.277Z,79.19
2022-09-14T01:39:53.710Z,79.07
2022-09-14T01:42:22.453Z,79.24
2022-09-14T01:44:53.048Z,79.24
2022-09-14T01:47:34.499Z,79.19
2022-09-14T01:50:18.579Z,79.32
2022-09-14T01:52:49.081Z,79.17
2022-09-14T01:55:33.495Z,79.03
2022-09-14T01:58:16.791Z,79.05
2022-09-14T02:00:46.096Z,78.86
2022-09-14T02:03:18.132Z,78.99
2022-09-14T02:06:01.418Z,79.07
2022-09-14T02:08:29.885Z,78.96
2022-09-14T02:10:57.738Z,78.96
2022-09-14T02:13:25.919Z,78.92
2022-09-14T02:15:53.284Z,78.94
2022-09-14T02:18:20.733Z,79.03
2022-09-14T02:20:53.371Z,79.05
2022-09-14T02:23:20.401Z,79.20
2022-09-14T02:25:48.193Z,79.30
2022-09-14T02:28:15.610Z,79.27
2022-09-14T02:30:50.134Z,79.16
2022-09-14T02:33:40.135Z,79.17
2022-09-14T02:36:29.204Z,79.23
2022-09-14T02:39:01.778Z,78.89
2022-09-14T02:41:46.828Z,79.38
2022-09-14T02:44:25.990Z,79.31
2022-09-14T02:47:03.170Z,79.38
2022-09-14T02:49:45.150Z,79.10
2022-09-14T02:52:16.034Z,79.13
2022-09-14T02:55:04.724Z,79.20
2022-09-14T02:57:31.782Z,79.31
2022-09-14T02:59:58.684Z,79.20
2022-09-14T03:02:26.063Z,79.17
2022-09-14T03:04:53.398Z,79.19
2022-09-14T03:07:20.639Z,79.19
2022-09-14T03:09:47.620Z,79.45
2022-09-14T03:12:14.620Z,79.33
2022-09-14T03:14:41.601Z,79.33
2022-09-14T03:17:08.509Z,79.24
2022-09-14T03:19:35.492Z,79.34
2022-09-14T03:22:02.618Z,79.57
2022-09-14T03:24:29.574Z,79.46
2022-09-14T03:26:56.669Z,79.60
2022-09-14T03:29:23.745Z,79.30
2022-09-14T03:31:50.750Z,79.54
2022-09-14T03:34:17.833Z,79.66
2022-09-14T03:36:45.220Z,79.33
2022-09-14T03:39:12.497Z,79.66
2022-09-14T03:41:39.590Z,79.64
2022-09-14T03:44:07.228Z,79.40
2022-09-14T03:46:34.654Z,79.49
2022-09-14T03:49:01.741Z,79.47
2022-09-14T03:51:28.878Z,79.67
2022-09-14T03:53:55.729Z,79.67
2022-09-14T03:56:23.890Z,79.65
2022-09-14T03:58:51.372Z,79.85
2022-09-14T04:01:20.732Z,79.78
2022-09-14T04:03:48.711Z,79.59
2022-09-14T04:06:16.582Z,79.57
2022-09-14T04:08:44.998Z,79.69
2022-09-14T04:11:18.135Z,79.53
2022-09-14T04:13:46.077Z,79.49
2022-09-14T04:16:13.368Z,79.55
2022-09-14T04:18:41.762Z,79.72
2022-09-14T04:21:13.610Z,79.72
2022-09-14T04:24:02.925Z,79.45
2022-09-14T04:26:29.671Z,79.64
2022-09-14T04:28:57.495Z,79.73
2022-09-14T04:31:25.487Z,79.83
2022-09-14T04:33:56.888Z,79.79
2022-09-14T04:36:28.592Z,79.72
2022-09-14T04:39:00.098Z,79.71
2022-09-14T04:41:28.111Z,79.70
2022-09-14T04:43:56.178Z,79.67
2022-09-14T04:46:27.716Z,79.97
2022-09-14T04:48:54.997Z,79.78
2022-09-14T04:51:24.872Z,79.78
2022-09-14T04:53:53.652Z,80.02
2022-09-14T04:56:22.505Z,79.87
2022-09-14T04:58:52.067Z,79.79
2022-09-14T05:01:21.993Z,80.21
2022-09-14T05:03:49.938Z,80.06
2022-09-14T05:06:22.799Z,80.12
2022-09-14T05:08:50.297Z,80.22
2022-09-14T05:11:22.464Z,80.28
2022-09-14T05:13:50.477Z,80.09
2022-09-14T05:16:22.632Z,79.94
2022-09-14T05:18:50.647Z,80.01
2022-09-14T05:21:19.661Z,80.11
2022-09-14T05:23:47.159Z,80.17
2022-09-14T05:26:14.903Z,80.09
2022-09-14T05:28:42.002Z,80.17
2022-09-14T05:31:11.460Z,80.26
2022-09-14T05:33:38.671Z,80.11
2022-09-14T05:36:07.753Z,80.28
2022-09-14T05:38:37.544Z,80.34
2022-09-14T05:41:05.543Z,80.61
2022-09-14T05:43:32.799Z,80.45
2022-09-14T05:46:13.067Z,80.58
2022-09-14T05:48:40.889Z,80.25
2022-09-14T05:51:12.710Z,80.30
2022-09-14T05:53:40.208Z,80.45
2022-09-14T05:56:12.673Z,80.12
2022-09-14T05:58:40.836Z,80.35
2022-09-14T06:01:20.011Z,79.86
2022-09-14T06:03:48.270Z,79.78
2022-09-14T06:06:17.699Z,79.77
2022-09-14T06:08:45.077Z,79.90
2022-09-14T06:11:15.348Z,79.50
2022-09-14T06:13:43.128Z,79.54
2022-09-14T06:16:13.061Z,79.25
2022-09-14T06:18:41.189Z,79.09
2022-09-14T06:21:09.637Z,79.02
2022-09-14T06:23:37.359Z,78.93
2022-09-14T06:26:05.712Z,78.98
2022-09-14T06:28:34.120Z,78.67
2022-09-14T06:31:03.765Z,78.61
2022-09-14T06:33:32.200Z,78.86
2022-09-14T06:36:12.817Z,78.28
2022-09-14T06:38:41.396Z,78.22
2022-09-14T06:41:12.359Z,78.24
2022-09-14T06:43:41.000Z,77.94
2022-09-14T06:46:10.241Z,77.70
2022-09-14T06:48:39.305Z,77.72
2022-09-14T06:51:21.676Z,77.43
2022-09-14T06:53:49.538Z,77.37
2022-09-14T06:56:17.194Z,77.20
2022-09-14T06:58:44.675Z,77.19
2022-09-14T07:01:14.963Z,76.98
2022-09-14T07:03:44.022Z,76.93
2022-09-14T07:06:22.604Z,76.90
2022-09-14T07:08:51.030Z,76.94
2022-09-14T07:11:21.630Z,76.77
2022-09-14T07:13:48.830Z,76.58
2022-09-14T07:16:16.132Z,76.64
2022-09-14T07:18:43.417Z,76.52
2022-09-14T07:21:18.940Z,76.26
2022-09-14T07:23:47.070Z,76.07
2022-09-14T07:26:16.810Z,75.97
2022-09-14T07:28:46.020Z,75.66
2022-09-14T07:31:33.070Z,75.46
2022-09-14T07:34:03.470Z,75.21
2022-09-14T07:36:34.808Z,74.67
2022-09-14T07:39:04.616Z,74.60
2022-09-14T07:41:34.249Z,74.53
2022-09-14T07:44:03.003Z,74.39
2022-09-14T07:46:33.334Z,74.20
2022-09-14T07:49:02.012Z,74.15
2022-09-14T07:51:30.791Z,73.90
2022-09-14T07:54:00.968Z,73.76
2022-09-14T07:56:28.501Z,73.76
2022-09-14T07:59:11.454Z,73.64
2022-09-14T08:01:44.633Z,73.52
2022-09-14T08:04:11.881Z,73.38
2022-09-14T08:06:40.836Z,73.18
2022-09-14T08:09:11.335Z,73.28
2022-09-14T08:11:38.881Z,73.10
2022-09-14T08:14:10.041Z,72.91
2022-09-14T08:16:39.086Z,72.87
2022-09-14T08:19:10.934Z,72.72
2022-09-14T08:21:40.650Z,72.47
2022-09-14T08:24:12.091Z,72.38
2022-09-14T08:26:40.887Z,72.20
2022-09-14T08:29:08.197Z,72.15
2022-09-14T08:31:39.511Z,71.83
2022-09-14T08:34:07.550Z,71.63
2022-09-14T08:36:38.710Z,71.53
2022-09-14T08:39:09.383Z,71.40
2022-09-14T08:41:42.260Z,71.15
2022-09-14T08:44:15.962Z,71.04
2022-09-14T08:46:52.131Z,70.72
2022-09-14T08:49:25.070Z,70.48
2022-09-14T08:51:52.415Z,70.48
2022-09-14T08:54:19.370Z,70.48
2022-09-14T08:56:51.834Z,70.24
2022-09-14T08:59:43.440Z,70.29
2022-09-14T09:02:31.949Z,69.93
2022-09-14T09:05:19.770Z,69.91
2022-09-14T09:07:56.958Z,69.79
2022-09-14T09:10:25.601Z,69.65
2022-09-14T09:12:55.541Z,69.56
2022-09-14T09:15:51.061Z,69.40
2022-09-14T09:18:46.930Z,69.41
2022-09-14T09:21:19.530Z,69.29
2022-09-14T09:23:46.660Z,69.16
2022-09-14T09:26:25.660Z,69.09
2022-09-14T09:28:54.931Z,68.84
2022-09-14T09:31:35.929Z,68.94
2022-09-14T09:34:28.266Z,68.81
2022-09-14T09:37:15.290Z,68.76
2022-09-14T09:39:43.502Z,68.68
2022-09-14T09:42:24.583Z,68.76
2022-09-14T09:45:10.470Z,68.57
2022-09-14T09:47:44.172Z,68.47
2022-09-14T09:50:14.164Z,68.55
2022-09-14T09:52:55.683Z,68.49
2022-09-14T09:55:26.251Z,68.25
2022-09-14T09:57:54.620Z,68.01
2022-09-14T10:00:30.427Z,67.97
2022-09-14T10:03:02.612Z,67.87
2022-09-14T10:05:31.799Z,67.68
2022-09-14T10:08:01.100Z,67.56
2022-09-14T10:10:46.752Z,67.53
2022-09-14T10:13:29.531Z,67.21
2022-09-14T10:16:17.479Z,67.24
2022-09-14T10:18:49.145Z,67.09
2022-09-14T10:21:20.381Z,66.93
2022-09-14T10:23:48.059Z,67.15
2022-09-14T10:26:15.046Z,66.84
2022-09-14T10:28:47.322Z,67.00
2022-09-14T10:31:23.777Z,67.00
2022-09-14T10:33:58.569Z,66.94
2022-09-14T10:36:29.459Z,66.74
2022-09-14T10:39:16.243Z,66.77
2022-09-14T10:42:04.531Z,66.59
2022-09-14T10:44:56.750Z,66.59
2022-09-14T10:47:45.410Z,66.39
2022-09-14T10:50:50.504Z,66.46
2022-09-14T10:53:43.720Z,66.18
2022-09-14T10:56:24.219Z,66.22
2022-09-14T10:59:16.910Z,65.94
2022-09-14T11:02:08.613Z,65.62
2022-09-14T11:04:54.401Z,65.44
2022-09-14T11:07:59.240Z,65.19
2022-09-14T11:10:33.180Z,64.98
2022-09-14T11:13:37.539Z,64.62
2022-09-14T11:16:41.751Z,64.49
2022-09-14T11:19:21.251Z,64.27
2022-09-14T11:22:13.380Z,64.18
2022-09-14T11:24:48.889Z,63.97
2022-09-14T11:27:21.870Z,63.90
2022-09-14T11:30:01.395Z,63.81
2022-09-14T11:32:47.061Z,63.68
2022-09-14T11:35:48.660Z,63.73
2022-09-14T11:38:22.410Z,63.56
2022-09-14T11:40:53.650Z,63.59
2022-09-14T11:43:31.440Z,63.41
2022-09-14T11:46:10.665Z,63.45
2022-09-14T11:48:44.317Z,63.28
2022-09-14T11:51:22.557Z,63.16
2022-09-14T11:53:50.964Z,62.91
2022-09-14T11:56:36.642Z,62.51
2022-09-14T11:59:06.863Z,62.46
2022-09-14T12:01:38.751Z,62.31
2022-09-14T12:04:17.201Z,62.14
2022-09-14T12:06:49.865Z,62.03
2022-09-14T12:09:21.362Z,61.89
2022-09-14T12:11:59.439Z,61.88
2022-09-14T12:14:30.349Z,61.90
2022-09-14T12:20:42.860Z,61.70
2022-09-14T12:23:42.137Z,61.78
2022-09-14T12:26:12.541Z,61.78
2022-09-14T12:28:48.605Z,61.60
2022-09-14T12:31:36.202Z,61.68
2022-09-14T12:34:18.453Z,61.94
2022-09-14T12:36:45.459Z,61.97
2022-09-14T12:39:30.689Z,62.24
2022-09-14T12:42:00.158Z,62.40
2022-09-14T12:44:41.261Z,62.53
2022-09-14T12:47:29.480Z,62.66
2022-09-14T12:50:23.448Z,62.58
2022-09-14T12:53:04.980Z,62.82
2022-09-14T12:55:47.615Z,62.79
2022-09-14T12:58:22.422Z,62.73
2022-09-14T13:01:14.065Z,62.64
2022-09-14T13:03:53.575Z,62.35
2022-09-14T13:06:22.241Z,62.35
2022-09-14T13:08:59.189Z,62.42
2022-09-14T13:11:36.850Z,62.50
2022-09-14T13:14:04.012Z,62.29
2022-09-14T13:16:37.790Z,62.28
2022-09-14T13:19:16.570Z,62.30
2022-09-14T13:21:49.040Z,62.31
2022-09-14T13:24:25.811Z,62.36
2022-09-14T13:26:55.272Z,62.33
2022-09-14T13:29:22.370Z,62.28
2022-09-14T13:31:49.650Z,62.44
2022-09-14T13:34:26.371Z,62.37
2022-09-14T13:36:54.041Z,62.42
2022-09-14T13:39:25.013Z,62.44
2022-09-14T13:41:52.861Z,62.14
2022-09-14T13:44:24.421Z,62.25
2022-09-14T13:46:51.610Z,62.21
2022-09-14T13:49:29.294Z,62.37
2022-09-14T13:52:25.934Z,61.98
2022-09-14T13:55:22.089Z,61.87
2022-09-14T13:58:24.599Z,61.75
2022-09-14T14:00:58.775Z,61.60
2022-09-14T14:03:48.825Z,61.47
2022-09-14T14:06:28.670Z,61.52
2022-09-14T14:09:11.309Z,61.36
2022-09-14T14:11:48.381Z,61.43
2022-09-14T14:14:30.159Z,61.42
2022-09-14T14:17:21.905Z,61.27
2022-09-14T14:19:51.021Z,61.03
2022-09-14T14:22:38.927Z,60.83
2022-09-14T14:25:43.468Z,60.70
2022-09-14T14:28:39.941Z,60.40
2022-09-14T14:31:13.873Z,60.41
2022-09-14T14:33:49.050Z,60.44
2022-09-14T14:36:16.657Z,60.47
2022-09-14T14:38:46.051Z,60.33
2022-09-14T14:41:17.965Z,60.21
2022-09-14T14:43:50.157Z,60.30
2022-09-14T14:46:17.671Z,60.17
2022-09-14T14:48:44.902Z,60.18
2022-09-14T14:51:17.540Z,60.30
2022-09-14T14:53:46.126Z,60.03
2022-09-14T14:56:13.936Z,60.10
2022-09-14T14:58:45.859Z,60.13
2022-09-14T15:01:12.971Z,60.01
2022-09-14T15:03:40.043Z,59.82
2022-09-14T15:06:23.237Z,59.84
2022-09-14T15:08:57.074Z,59.86
2022-09-14T15:11:24.394Z,59.78
2022-09-14T15:13:51.667Z,59.72
2022-09-14T15:16:18.953Z,59.90
2022-09-14T15:18:45.937Z,59.64
2022-09-14T15:21:12.983Z,59.76
2022-09-14T15:23:39.919Z,59.72
2022-09-14T15:26:06.997Z,59.55
2022-09-14T15:28:38.482Z,59.27
2022-09-14T15:31:07.980Z,59.62
2022-09-14T15:33:35.112Z,59.46
2022-09-14T15:36:03.511Z,59.56
2022-09-14T15:38:30.529Z,59.53
2022-09-14T15:40:57.480Z,59.57
2022-09-14T15:43:24.590Z,59.59
2022-09-14T15:45:51.577Z,59.65
2022-09-14T15:48:19.523Z,59.49
2022-09-14T15:50:47.971Z,59.45
2022-09-14T15:53:17.077Z,59.10
2022-09-14T15:55:45.274Z,59.05
2022-09-14T15:58:12.987Z,59.05
2022-09-14T16:00:43.669Z,58.70
2022-09-14T16:03:11.340Z,58.61
2022-09-14T16:05:41.380Z,58.46
2022-09-14T16:08:08.365Z,58.41
2022-09-14T16:10:35.389Z,58.41
2022-09-14T16:13:02.423Z,58.40
2022-09-14T16:15:29.764Z,58.38
2022-09-14T16:17:56.815Z,58.35
2022-09-14T16:20:23.752Z,58.54
2022-09-14T16:22:51.352Z,58.54
2022-09-14T16:25:18.333Z,58.49
2022-09-14T16:27:45.340Z,58.41
2022-09-14T16:30:12.804Z,58.55
2022-09-14T16:32:39.893Z,58.64
2022-09-14T16:35:08.396Z,58.69
2022-09-14T16:37:35.521Z,58.91
2022-09-14T16:40:03.969Z,59.12
2022-09-14T16:42:31.052Z,59.29
2022-09-14T16:44:57.917Z,59.25
2022-09-14T16:47:25.919Z,59.46
2022-09-14T16:49:53.263Z,59.59
2022-09-14T16:52:20.240Z,59.91
2022-09-14T16:54:47.194Z,60.21
2022-09-14T16:57:14.458Z,60.20
2022-09-14T16:59:41.581Z,60.31
2022-09-14T17:02:10.688Z,60.38
2022-09-14T17:04:37.759Z,60.80
2022-09-14T17:07:04.842Z,61.04
2022-09-14T17:09:33.024Z,61.22
2022-09-14T17:12:00.406Z,61.01
2022-09-14T17:14:31.960Z,61.63
2022-09-14T17:16:59.322Z,61.58
2022-09-14T17:19:27.236Z,61.71
2022-09-14T17:21:54.175Z,61.72
2022-09-14T17:24:21.472Z,62.14
2022-09-14T17:26:48.558Z,62.37
2022-09-14T17:29:15.556Z,62.34
2022-09-14T17:31:44.113Z,62.39
2022-09-14T17:34:12.943Z,62.64
2022-09-14T17:36:39.948Z,62.67
2022-09-14T17:39:11.763Z,62.71
2022-09-14T17:41:40.731Z,62.96
2022-09-14T17:44:10.994Z,62.95
2022-09-14T17:46:45.402Z,63.15
2022-09-14T17:49:16.182Z,63.30
2022-09-14T17:51:45.296Z,63.23
2022-09-14T17:54:12.852Z,63.02
2022-09-14T17:56:39.961Z,63.12
2022-09-14T17:59:10.808Z,63.44
2022-09-14T18:01:38.355Z,63.25
2022-09-14T18:04:12.548Z,62.93
2022-09-14T18:06:43.096Z,63.01
2022-09-14T18:09:16.221Z,63.14
2022-09-14T18:11:43.684Z,63.31
2022-09-14T18:14:13.027Z,63.35
2022-09-14T18:16:40.653Z,63.16
2022-09-14T18:19:08.130Z,63.38
2022-09-14T18:21:35.606Z,63.53
2022-09-14T18:24:03.433Z,63.51
2022-09-14T18:26:30.629Z,63.55
2022-09-14T18:28:58.879Z,63.71
2022-09-14T18:31:26.890Z,64.01
2022-09-14T18:33:57.941Z,64.15
2022-09-14T18:36:28.810Z,64.14
2022-09-14T18:38:56.732Z,64.07
2022-09-14T18:41:23.709Z,64.17
2022-09-14T18:43:52.069Z,64.14
2022-09-14T18:46:19.329Z,64.28
2022-09-14T18:48:46.708Z,64.60
2022-09-14T18:51:14.517Z,64.90
2022-09-14T18:53:41.807Z,64.84
2022-09-14T18:56:11.665Z,64.73
2022-09-14T18:58:44.594Z,64.82
2022-09-14T19:01:12.551Z,65.14
2022-09-14T19:03:41.694Z,65.01
2022-09-14T19:06:13.079Z,65.37
2022-09-14T19:08:40.811Z,65.11
2022-09-14T19:11:12.567Z,65.36
2022-09-14T19:13:40.177Z,65.68
2022-09-14T19:16:12.924Z,65.28
2022-09-14T19:18:40.781Z,65.70
2022-09-14T19:21:11.850Z,65.41
2022-09-14T19:23:39.949Z,65.82
2022-09-14T19:26:11.180Z,65.93
2022-09-14T19:28:38.823Z,65.67
2022-09-14T19:31:11.985Z,65.66
2022-09-14T19:33:45.074Z,65.64
2022-09-14T19:36:17.417Z,66.14
2022-09-14T19:38:45.902Z,66.08
2022-09-14T19:41:13.277Z,66.20
2022-09-14T19:43:40.632Z,66.08
2022-09-14T19:46:14.486Z,66.07
2022-09-14T19:48:42.386Z,65.81
2022-09-14T19:51:13.790Z,66.30
2022-09-14T19:53:41.630Z,65.89
2022-09-14T19:56:12.950Z,66.04
2022-09-14T19:58:43.374Z,66.00
2022-09-14T20:01:12.184Z,65.94
2022-09-14T20:03:42.731Z,66.35
2022-09-14T20:06:24.134Z,66.06
2022-09-14T20:08:53.778Z,66.14
2022-09-14T20:11:24.105Z,65.99
2022-09-14T20:13:57.454Z,66.33
2022-09-14T20:16:31.036Z,66.41
2022-09-14T20:19:00.548Z,66.05
2022-09-14T20:21:28.086Z,66.04
2022-09-14T20:24:16.177Z,66.23
2022-09-14T20:26:49.886Z,66.34
2022-09-14T20:29:18.454Z,66.48
2022-09-14T20:31:46.455Z,66.21
2022-09-14T20:34:15.724Z,66.35
2022-09-14T20:36:42.985Z,66.30
2022-09-14T20:39:10.352Z,66.47
2022-09-14T20:41:37.457Z,66.49
2022-09-14T20:44:05.341Z,66.92
2022-09-14T20:46:39.307Z,66.74
2022-09-14T20:49:10.854Z,66.97
2022-09-14T20:51:38.690Z,66.88
2022-09-14T20:54:06.771Z,66.73
2022-09-14T20:56:35.232Z,67.26
2022-09-14T20:59:03.681Z,67.03
2022-09-14T21:01:33.971Z,67.09
2022-09-14T21:04:07.318Z,67.40
2022-09-14T21:06:40.074Z,67.14
2022-09-14T21:09:08.053Z,67.35
2022-09-14T21:11:35.169Z,67.51
2022-09-14T21:14:02.455Z,67.71
2022-09-14T21:16:32.118Z,67.56
2022-09-14T21:19:05.044Z,67.43
2022-09-14T21:21:32.339Z,67.70
2022-09-14T21:24:00.385Z,67.52
2022-09-14T21:26:29.110Z,67.94
2022-09-14T21:28:58.163Z,68.05
2022-09-14T21:31:26.264Z,67.65
2022-09-14T21:33:54.795Z,68.04
2022-09-14T21:36:31.927Z,67.84
2022-09-14T21:39:02.493Z,67.84
2022-09-14T21:41:30.563Z,67.86
2022-09-14T21:43:57.910Z,67.80
2022-09-14T21:46:25.799Z,67.80
2022-09-14T21:48:54.058Z,67.88
2022-09-14T21:51:28.087Z,67.69
2022-09-14T21:54:00.162Z,67.62
2022-09-14T21:56:29.795Z,67.58
2022-09-14T21:59:01.356Z,67.76
2022-09-14T22:01:29.503Z,67.42
2022-09-14T22:03:57.433Z,67.75
2022-09-14T22:06:27.592Z,67.39
2022-09-14T22:08:55.398Z,67.31
2022-09-14T22:11:27.553Z,67.66
2022-09-14T22:13:56.197Z,67.44
2022-09-14T22:16:24.049Z,67.28
2022-09-14T22:18:53.628Z,67.47
2022-09-14T22:21:21.670Z,67.20
2022-09-14T22:23:51.091Z,67.14
2022-09-14T22:26:20.154Z,67.23
2022-09-14T22:28:49.345Z,67.41
2022-09-14T22:31:18.119Z,67.35
2022-09-14T22:33:45.514Z,67.53
2022-09-14T22:36:13.262Z,67.26
2022-09-14T22:38:43.207Z,67.36
2022-09-14T22:41:12.604Z,67.41
2022-09-14T22:43:40.458Z,67.84
2022-09-14T22:46:08.843Z,67.91
2022-09-14T22:48:36.284Z,67.98
2022-09-14T22:51:04.362Z,67.83
2022-09-14T22:53:32.003Z,67.73
2022-09-14T22:55:59.083Z,67.88
2022-09-14T22:58:27.337Z,68.19
2022-09-14T23:00:54.413Z,68.25
2022-09-14T23:03:21.513Z,68.25
2022-09-14T23:05:50.911Z,68.14
2022-09-14T23:08:18.385Z,68.32
2022-09-14T23:10:46.576Z,68.39
2022-09-14T23:13:14.263Z,68.65
2022-09-14T23:15:41.275Z,68.66
2022-09-14T23:18:08.786Z,68.87
2022-09-14T23:20:42.898Z,68.81
2022-09-14T23:23:11.650Z,68.76
2022-09-14T23:25:40.075Z,68.54
2022-09-14T23:28:08.200Z,68.97
2022-09-14T23:30:35.392Z,69.00
2022-09-14T23:33:02.513Z,68.78
2022-09-14T23:35:30.224Z,68.78
2022-09-14T23:37:57.502Z,69.00
2022-09-14T23:40:24.619Z,68.91
2022-09-14T23:42:51.587Z,68.97
2022-09-14T23:45:18.534Z,69.37
2022-09-14T23:47:46.177Z,69.44
2022-09-14T23:50:13.234Z,69.40
2022-09-14T23:52:40.724Z,69.16
2022-09-14T23:55:08.473Z,69.34
2022-09-14T23:57:36.715Z,69.67
